createdAt,value
2018-05-03T00:00:01.586Z,99.99
2018-05-03T00:09:56.766Z,99.99
2018-05-03T00:19:53.309Z,99.99
2018-05-03T00:29:49.739Z,99.99
2018-05-03T00:39:45.199Z,99.99
2018-05-03T00:49:43.095Z,99.99
2018-05-03T00:59:39.732Z,99.99
2018-05-03T01:09:35.641Z,99.99
2018-05-03T01:19:34.457Z,99.99
2018-05-03T01:29:31.464Z,99.99
2018-05-03T01:39:27.090Z,99.99
2018-05-03T01:49:24.078Z,99.99
2018-05-03T01:59:23.821Z,99.99
2018-05-03T02:09:21.545Z,99.99
2018-05-03T02:19:17.981Z,99.99
2018-05-03T02:29:15.322Z,99.99
2018-05-03T02:39:10.218Z,99.99
2018-05-03T02:49:07.568Z,99.99
2018-05-03T02:59:04.435Z,99.99
2018-05-03T03:08:59.791Z,99.99
2018-05-03T03:18:58.033Z,99.99
2018-05-03T03:28:51.945Z,99.99
2018-05-03T03:38:49.701Z,99.99
2018-05-03T03:48:47.568Z,99.99
2018-05-03T03:58:44.611Z,99.99
2018-05-03T04:08:39.797Z,99.99
2018-05-03T04:18:39.345Z,99.99
2018-05-03T04:28:23.034Z,99.99
2018-05-03T04:38:22.080Z,99.99
2018-05-03T04:48:20.720Z,99.99
2018-05-03T04:58:18.851Z,99.99
2018-05-03T05:08:14.557Z,99.99
2018-05-03T05:18:10.617Z,99.99
2018-05-03T05:28:09.869Z,99.99
2018-05-03T05:38:07.473Z,99.99
2018-05-03T05:48:06.816Z,99.99
2018-05-03T05:58:04.729Z,99.99
2018-05-03T06:08:02.579Z,99.99
2018-05-03T06:17:59.409Z,99.99
2018-05-03T06:27:58.525Z,96.08
2018-05-03T06:37:57.608Z,97.75
2018-05-03T06:47:53.431Z,94.38
2018-05-03T06:57:51.428Z,89.92
2018-05-03T07:07:49.414Z,90.28
2018-05-03T07:17:46.940Z,84.31
2018-05-03T07:27:44.770Z,82.63
2018-05-03T07:37:43.205Z,83.39
2018-05-03T07:47:42.050Z,81.24
2018-05-03T07:57:37.968Z,77.91
2018-05-03T08:07:29.823Z,77.53
2018-05-03T08:17:27.970Z,74.79
2018-05-03T08:27:20.524Z,74.55
2018-05-03T08:37:17.492Z,73.62
2018-05-03T08:47:14.068Z,72.25
2018-05-03T08:57:12.549Z,71.32
2018-05-03T09:07:08.829Z,70.32
2018-05-03T09:17:07.570Z,70.15
2018-05-03T09:27:03.594Z,69.16
2018-05-03T09:36:59.890Z,70.45
2018-05-03T09:46:55.798Z,68.43
2018-05-03T09:56:51.981Z,68.33
2018-05-03T10:06:47.828Z,68.86
2018-05-03T10:16:46.457Z,66.28
2018-05-03T10:26:43.228Z,65.66
2018-05-03T10:36:39.013Z,69.02
2018-05-03T10:46:21.679Z,66.44
2018-05-03T10:55:52.337Z,68.27
2018-05-03T11:05:32.295Z,66.05
2018-05-03T11:15:01.619Z,63.60
2018-05-03T11:24:38.913Z,62.78
2018-05-03T11:34:20.705Z,64.47
2018-05-03T11:43:50.726Z,63.22
2018-05-03T11:53:26.911Z,62.81
2018-05-03T12:03:05.403Z,58.80
2018-05-03T12:12:43.110Z,55.47
2018-05-03T12:22:20.093Z,57.31
2018-05-03T12:31:57.558Z,54.42
2018-05-03T12:41:35.847Z,55.45
2018-05-03T12:51:13.448Z,55.87
2018-05-03T13:00:51.628Z,55.05
2018-05-03T13:10:30.264Z,53.91
2018-05-03T13:20:09.449Z,54.60
2018-05-03T13:29:44.995Z,60.08
2018-05-03T13:39:20.069Z,55.85
2018-05-03T13:49:02.945Z,51.47
2018-05-03T13:58:39.682Z,57.68
2018-05-03T14:08:10.810Z,60.33
2018-05-03T14:17:48.205Z,59.12
2018-05-03T14:27:32.002Z,57.07
2018-05-03T14:37:08.308Z,56.37
2018-05-03T14:46:48.413Z,54.01
2018-05-03T14:56:27.790Z,56.84
2018-05-03T15:06:05.351Z,56.51
2018-05-03T15:15:35.135Z,62.21
2018-05-03T15:25:15.386Z,63.70
2018-05-03T15:34:41.276Z,67.63
2018-05-03T15:44:21.322Z,68.99
2018-05-03T15:54:08.738Z,63.80
2018-05-03T16:04:04.888Z,64.70
2018-05-03T16:13:56.967Z,65.55
2018-05-03T16:23:53.521Z,68.83
2018-05-03T16:33:45.967Z,67.18
2018-05-03T16:43:42.636Z,69.69
2018-05-03T16:53:39.027Z,76.46
2018-05-03T17:03:31.831Z,70.59
2018-05-03T17:13:28.007Z,71.85
2018-05-03T17:23:23.807Z,72.98
2018-05-03T17:33:20.940Z,75.25
2018-05-03T17:43:16.877Z,76.72
2018-05-03T17:53:14.458Z,80.79
2018-05-03T18:03:09.510Z,81.27
2018-05-03T18:13:02.420Z,84.35
2018-05-03T18:22:57.188Z,85.39
2018-05-03T18:32:50.776Z,85.33
2018-05-03T18:42:44.020Z,86.88
2018-05-03T18:52:40.252Z,89.67
2018-05-03T19:02:36.872Z,89.67
2018-05-03T19:12:34.759Z,90.72
2018-05-03T19:22:32.229Z,92.33
2018-05-03T19:32:29.495Z,94.08
2018-05-03T19:42:25.986Z,94.83
2018-05-03T19:52:23.737Z,95.48
2018-05-03T20:02:19.333Z,96.53
2018-05-03T20:12:12.845Z,97.33
2018-05-03T20:22:09.093Z,97.64
2018-05-03T20:32:04.189Z,98.13
2018-05-03T20:42:02.961Z,98.13
2018-05-03T20:51:58.699Z,98.64
2018-05-03T21:01:56.500Z,98.03
2018-05-03T21:11:54.300Z,96.68
2018-05-03T21:21:51.402Z,97.64
2018-05-03T21:31:44.148Z,96.48
2018-05-03T21:41:42.447Z,96.78
2018-05-03T21:51:38.856Z,95.58
2018-05-03T22:01:34.314Z,96.39
2018-05-03T22:11:30.385Z,96.34
2018-05-03T22:21:28.281Z,96.78
2018-05-03T22:31:24.832Z,96.59
2018-05-03T22:41:19.900Z,97.33
2018-05-03T22:51:18.332Z,97.99
2018-05-03T23:01:17.056Z,97.78
2018-05-03T23:11:13.774Z,98.13
2018-05-03T23:21:09.657Z,99.19
2018-05-03T23:31:06.167Z,98.68
2018-05-03T23:41:03.779Z,99.54
2018-05-03T23:50:59.780Z,99.88
